N222HL KRDU-KIND
Flight info
| Callsign | N222HL |
|---|---|
| Flight time | 1h 42m |
| Altitude | 40000 |
| Route | LWOOD5 DANCO ZIEBR HAGAL GIIBS4 |
| Aircraft | CL60/M-SBDE1E2E3FGHIJ1J4J5J7M3RWXYZ/LB1V1D1 |
Departure
| Time | 2026-05-07 00:58 |
|---|---|
| Airport | Raleigh-Durham International Airport (KRDU) |
Arrival
| Time | 2026-05-07 02:40 |
|---|---|
| Airport | Indianapolis International Airport (KIND) |
| Time | Latitude | Longitude | Altitude | Speed | Heading |
|---|---|---|---|---|---|
| 2026-05-07 00:34 | 35.88120 | -78.78204 | 422 ft | 0 kts | 221° |
| 2026-05-07 00:53 | 35.88117 | -78.78207 | 422 ft | 3 kts | 220° |
| 2026-05-07 00:54 | 35.88115 | -78.78175 | 422 ft | 7 kts | 68° |
| 2026-05-07 00:54 | 35.88131 | -78.78120 | 420 ft | 3 kts | 116° |
| 2026-05-07 00:54 | 35.88128 | -78.78114 | 420 ft | 0 kts | 121° |
| 2026-05-07 00:55 | 35.88114 | -78.78091 | 420 ft | 7 kts | 131° |
| 2026-05-07 00:55 | 35.88071 | -78.78064 | 420 ft | 6 kts | 191° |
| 2026-05-07 00:55 | 35.88026 | -78.78081 | 422 ft | 7 kts | 179° |
| 2026-05-07 00:55 | 35.87986 | -78.78046 | 422 ft | 5 kts | 127° |
| 2026-05-07 00:56 | 35.87982 | -78.78040 | 421 ft | 0 kts | 127° |
| 2026-05-07 00:57 | 35.87965 | -78.78017 | 421 ft | 10 kts | 135° |
| 2026-05-07 00:57 | 35.87893 | -78.77966 | 419 ft | 12 kts | 208° |
| 2026-05-07 00:58 | 35.87761 | -78.78130 | 426 ft | 63 kts | 225° |
| 2026-05-07 00:58 | 35.87206 | -78.78815 | 450 ft | 153 kts | 225° |
| 2026-05-07 00:58 | 35.86393 | -78.79841 | 1069 ft | 177 kts | 226° |
| 2026-05-07 00:58 | 35.85546 | -78.80926 | 2022 ft | 179 kts | 226° |
| 2026-05-07 00:59 | 35.83826 | -78.83002 | 3893 ft | 181 kts | 225° |
| 2026-05-07 00:59 | 35.82977 | -78.84135 | 4797 ft | 184 kts | 241° |
| 2026-05-07 00:59 | 35.82700 | -78.85664 | 5607 ft | 196 kts | 276° |
| 2026-05-07 01:00 | 35.83291 | -78.87294 | 6028 ft | 225 kts | 298° |
| 2026-05-07 01:00 | 35.84167 | -78.88880 | 7261 ft | 230 kts | 299° |
| 2026-05-07 01:00 | 35.85036 | -78.90451 | 8661 ft | 227 kts | 299° |
| 2026-05-07 01:00 | 35.85908 | -78.92046 | 9896 ft | 230 kts | 298° |
| 2026-05-07 01:01 | 35.86778 | -78.93678 | 11049 ft | 236 kts | 298° |
| 2026-05-07 01:01 | 35.87680 | -78.95386 | 11678 ft | 242 kts | 298° |
| 2026-05-07 01:01 | 35.88602 | -78.97124 | 11931 ft | 240 kts | 298° |
| 2026-05-07 01:01 | 35.89506 | -78.98829 | 11967 ft | 236 kts | 298° |
| 2026-05-07 01:02 | 35.90434 | -79.00593 | 12119 ft | 257 kts | 297° |
| 2026-05-07 01:02 | 35.91416 | -79.02464 | 13114 ft | 267 kts | 298° |
| 2026-05-07 01:02 | 35.92427 | -79.04383 | 14209 ft | 272 kts | 297° |
| 2026-05-07 01:02 | 35.93450 | -79.06329 | 15243 ft | 276 kts | 298° |
| 2026-05-07 01:03 | 35.94504 | -79.08338 | 16160 ft | 282 kts | 298° |
| 2026-05-07 01:03 | 35.95565 | -79.10360 | 17080 ft | 287 kts | 298° |
| 2026-05-07 01:03 | 35.96653 | -79.12436 | 17948 ft | 292 kts | 298° |
| 2026-05-07 01:03 | 35.97770 | -79.14568 | 18830 ft | 296 kts | 298° |
| 2026-05-07 01:04 | 35.98880 | -79.16685 | 19718 ft | 298 kts | 298° |
| 2026-05-07 01:04 | 36.00015 | -79.18857 | 20492 ft | 303 kts | 298° |
| 2026-05-07 01:04 | 36.01151 | -79.21029 | 21277 ft | 306 kts | 297° |
| 2026-05-07 01:04 | 36.02300 | -79.23229 | 21947 ft | 309 kts | 298° |
| 2026-05-07 01:05 | 36.03435 | -79.25523 | 22522 ft | 312 kts | 292° |
| 2026-05-07 01:05 | 36.04329 | -79.27975 | 23085 ft | 316 kts | 289° |
| 2026-05-07 01:05 | 36.05194 | -79.30448 | 23898 ft | 314 kts | 289° |
| 2026-05-07 01:05 | 36.06053 | -79.32894 | 24662 ft | 313 kts | 289° |
| 2026-05-07 01:06 | 36.07017 | -79.35325 | 25368 ft | 317 kts | 297° |
| 2026-05-07 01:06 | 36.08533 | -79.37378 | 25952 ft | 333 kts | 315° |
| 2026-05-07 01:06 | 36.10534 | -79.38944 | 26483 ft | 344 kts | 321° |
| 2026-05-07 01:06 | 36.12641 | -79.40470 | 27095 ft | 345 kts | 320° |
| 2026-05-07 01:07 | 36.14721 | -79.41985 | 27667 ft | 346 kts | 320° |
| 2026-05-07 01:07 | 36.16800 | -79.43501 | 28271 ft | 346 kts | 320° |
| 2026-05-07 01:07 | 36.18957 | -79.45076 | 28780 ft | 349 kts | 320° |
| 2026-05-07 01:07 | 36.21112 | -79.46650 | 29238 ft | 352 kts | 320° |
| 2026-05-07 01:08 | 36.23274 | -79.48226 | 29794 ft | 352 kts | 318° |
| 2026-05-07 01:08 | 36.25445 | -79.49812 | 30243 ft | 355 kts | 319° |
| 2026-05-07 01:08 | 36.27629 | -79.51407 | 30804 ft | 354 kts | 318° |
| 2026-05-07 01:08 | 36.29792 | -79.52989 | 31265 ft | 356 kts | 318° |
| 2026-05-07 01:09 | 36.31964 | -79.54581 | 31701 ft | 357 kts | 318° |
| 2026-05-07 01:09 | 36.34127 | -79.56165 | 32148 ft | 358 kts | 317° |
| 2026-05-07 01:09 | 36.36263 | -79.57725 | 32702 ft | 355 kts | 317° |
| 2026-05-07 01:09 | 36.38416 | -79.59304 | 33135 ft | 355 kts | 317° |
| 2026-05-07 01:10 | 36.40531 | -79.60859 | 33478 ft | 357 kts | 316° |
| 2026-05-07 01:10 | 36.42680 | -79.62438 | 33907 ft | 357 kts | 316° |
| 2026-05-07 01:10 | 36.44681 | -79.63905 | 34412 ft | 353 kts | 316° |
| 2026-05-07 01:10 | 36.46804 | -79.65460 | 35094 ft | 346 kts | 316° |
| 2026-05-07 01:11 | 36.48863 | -79.66970 | 35744 ft | 340 kts | 315° |
| 2026-05-07 01:11 | 36.50902 | -79.68472 | 36161 ft | 339 kts | 314° |
| 2026-05-07 01:11 | 36.52930 | -79.69964 | 36750 ft | 334 kts | 314° |
| 2026-05-07 01:11 | 36.54932 | -79.71438 | 37304 ft | 329 kts | 314° |
| 2026-05-07 01:12 | 36.56860 | -79.72942 | 37617 ft | 322 kts | 309° |
| 2026-05-07 01:12 | 36.58503 | -79.74707 | 37939 ft | 307 kts | 301° |
| 2026-05-07 01:12 | 36.59838 | -79.76732 | 38290 ft | 296 kts | 294° |
| 2026-05-07 01:12 | 36.60975 | -79.78874 | 38533 ft | 294 kts | 293° |
| 2026-05-07 01:13 | 36.62082 | -79.80988 | 38821 ft | 293 kts | 293° |
| 2026-05-07 01:13 | 36.63193 | -79.83109 | 39086 ft | 293 kts | 293° |
| 2026-05-07 01:13 | 36.64308 | -79.85241 | 39275 ft | 294 kts | 293° |
| 2026-05-07 01:13 | 36.65424 | -79.87372 | 39566 ft | 292 kts | 292° |
| 2026-05-07 01:14 | 36.66528 | -79.89484 | 39763 ft | 292 kts | 293° |
| 2026-05-07 01:14 | 36.67641 | -79.91616 | 39937 ft | 293 kts | 294° |
| 2026-05-07 01:14 | 36.68750 | -79.93745 | 39931 ft | 297 kts | 293° |
| 2026-05-07 01:15 | 36.71034 | -79.98133 | 39935 ft | 305 kts | 294° |
| 2026-05-07 01:15 | 36.73365 | -80.02613 | 39938 ft | 311 kts | 293° |
| 2026-05-07 01:16 | 36.75750 | -80.07199 | 39938 ft | 318 kts | 292° |
| 2026-05-07 01:16 | 36.78173 | -80.11865 | 39937 ft | 323 kts | 293° |
| 2026-05-07 01:17 | 36.80481 | -80.16317 | 39947 ft | 328 kts | 294° |
| 2026-05-07 01:17 | 36.82982 | -80.21143 | 39947 ft | 332 kts | 294° |
| 2026-05-07 01:18 | 36.85507 | -80.26022 | 39953 ft | 337 kts | 294° |
| 2026-05-07 01:18 | 36.88060 | -80.30962 | 39956 ft | 341 kts | 294° |
| 2026-05-07 01:19 | 36.90628 | -80.35936 | 39960 ft | 342 kts | 294° |
| 2026-05-07 01:19 | 36.93208 | -80.40937 | 39959 ft | 341 kts | 294° |
| 2026-05-07 01:20 | 36.95764 | -80.45901 | 39961 ft | 339 kts | 294° |
| 2026-05-07 01:20 | 36.98301 | -80.50839 | 39960 ft | 338 kts | 294° |
| 2026-05-07 01:21 | 37.00842 | -80.55791 | 39968 ft | 338 kts | 294° |
| 2026-05-07 01:21 | 37.03391 | -80.60770 | 39973 ft | 339 kts | 294° |
| 2026-05-07 01:22 | 37.05801 | -80.65483 | 39984 ft | 340 kts | 293° |
| 2026-05-07 01:22 | 37.08328 | -80.70468 | 39980 ft | 339 kts | 290° |
| 2026-05-07 01:23 | 37.10049 | -80.75847 | 39981 ft | 329 kts | 282° |
| 2026-05-07 01:23 | 37.11533 | -80.81224 | 39971 ft | 329 kts | 283° |
| 2026-05-07 01:24 | 37.13032 | -80.86655 | 39962 ft | 328 kts | 283° |
| 2026-05-07 01:24 | 37.14515 | -80.92036 | 39952 ft | 328 kts | 282° |
| 2026-05-07 01:25 | 37.16008 | -80.97463 | 39965 ft | 328 kts | 283° |
| 2026-05-07 01:25 | 37.17491 | -81.02866 | 39974 ft | 328 kts | 282° |
| 2026-05-07 01:26 | 37.18973 | -81.08275 | 39979 ft | 329 kts | 282° |
| 2026-05-07 01:26 | 37.20458 | -81.13700 | 39975 ft | 329 kts | 283° |
| 2026-05-07 01:27 | 37.21937 | -81.19116 | 39979 ft | 328 kts | 282° |
| 2026-05-07 01:27 | 37.23418 | -81.24550 | 39995 ft | 328 kts | 282° |
| 2026-05-07 01:28 | 37.24891 | -81.29966 | 39988 ft | 328 kts | 281° |
| 2026-05-07 01:28 | 37.26357 | -81.35368 | 39982 ft | 328 kts | 282° |
| 2026-05-07 01:29 | 37.27824 | -81.40784 | 39983 ft | 328 kts | 282° |
| 2026-05-07 01:29 | 37.29281 | -81.46173 | 39978 ft | 327 kts | 282° |
| 2026-05-07 01:30 | 37.30741 | -81.51589 | 39984 ft | 327 kts | 282° |
| 2026-05-07 01:30 | 37.32202 | -81.57018 | 39978 ft | 327 kts | 283° |
| 2026-05-07 01:31 | 37.33652 | -81.62410 | 39979 ft | 327 kts | 282° |
| 2026-05-07 01:31 | 37.35102 | -81.67821 | 39981 ft | 328 kts | 281° |
| 2026-05-07 01:32 | 37.36556 | -81.73255 | 39979 ft | 329 kts | 281° |
| 2026-05-07 01:32 | 37.38007 | -81.78694 | 39980 ft | 328 kts | 281° |
| 2026-05-07 01:33 | 37.39455 | -81.84124 | 39986 ft | 326 kts | 282° |
| 2026-05-07 01:33 | 37.40890 | -81.89522 | 39984 ft | 325 kts | 282° |
| 2026-05-07 01:34 | 37.42314 | -81.94891 | 39991 ft | 325 kts | 281° |
| 2026-05-07 01:34 | 37.43747 | -82.00307 | 39993 ft | 326 kts | 282° |
| 2026-05-07 01:35 | 37.45175 | -82.05711 | 39988 ft | 327 kts | 282° |
| 2026-05-07 01:35 | 37.46605 | -82.11131 | 39985 ft | 325 kts | 281° |
| 2026-05-07 01:36 | 37.48022 | -82.16518 | 39987 ft | 324 kts | 282° |
| 2026-05-07 01:36 | 37.49440 | -82.21924 | 39986 ft | 325 kts | 281° |
| 2026-05-07 01:37 | 37.50850 | -82.27307 | 39988 ft | 325 kts | 280° |
| 2026-05-07 01:37 | 37.52261 | -82.32703 | 39991 ft | 325 kts | 282° |
| 2026-05-07 01:38 | 37.53670 | -82.38108 | 39998 ft | 326 kts | 282° |
| 2026-05-07 01:38 | 37.55088 | -82.43555 | 40002 ft | 326 kts | 280° |
| 2026-05-07 01:39 | 37.56486 | -82.48940 | 40001 ft | 325 kts | 281° |
| 2026-05-07 01:39 | 37.57896 | -82.54378 | 39999 ft | 325 kts | 281° |
| 2026-05-07 01:40 | 37.59291 | -82.59773 | 40002 ft | 325 kts | 281° |
| 2026-05-07 01:40 | 37.60688 | -82.65190 | 39999 ft | 326 kts | 279° |
| 2026-05-07 01:41 | 37.62096 | -82.70660 | 40000 ft | 328 kts | 281° |
| 2026-05-07 01:41 | 37.63460 | -82.76111 | 39994 ft | 324 kts | 279° |
| 2026-05-07 01:42 | 37.64608 | -82.81606 | 39991 ft | 323 kts | 277° |
| 2026-05-07 01:42 | 37.65746 | -82.87090 | 39992 ft | 323 kts | 278° |
| 2026-05-07 01:43 | 37.66879 | -82.92557 | 39985 ft | 323 kts | 277° |
| 2026-05-07 01:43 | 37.68011 | -82.98032 | 39987 ft | 323 kts | 278° |
| 2026-05-07 01:44 | 37.69136 | -83.03487 | 39986 ft | 322 kts | 278° |
| 2026-05-07 01:44 | 37.70261 | -83.08955 | 39983 ft | 322 kts | 277° |
| 2026-05-07 01:45 | 37.71380 | -83.14412 | 39989 ft | 322 kts | 277° |
| 2026-05-07 01:45 | 37.72503 | -83.19900 | 39989 ft | 323 kts | 277° |
| 2026-05-07 01:46 | 37.73619 | -83.25370 | 39996 ft | 323 kts | 277° |
| 2026-05-07 01:46 | 37.74741 | -83.30880 | 39992 ft | 323 kts | 278° |
| 2026-05-07 01:47 | 37.75853 | -83.36350 | 39992 ft | 321 kts | 277° |
| 2026-05-07 01:47 | 37.76957 | -83.41805 | 39995 ft | 322 kts | 277° |
| 2026-05-07 01:48 | 37.78069 | -83.47310 | 39983 ft | 323 kts | 277° |
| 2026-05-07 01:48 | 37.79166 | -83.52751 | 39983 ft | 322 kts | 278° |
| 2026-05-07 01:49 | 37.80273 | -83.58257 | 39986 ft | 322 kts | 277° |
| 2026-05-07 01:49 | 37.81368 | -83.63720 | 39987 ft | 322 kts | 277° |
| 2026-05-07 01:50 | 37.82466 | -83.69208 | 39981 ft | 324 kts | 277° |
| 2026-05-07 01:50 | 37.83563 | -83.74709 | 39985 ft | 323 kts | 278° |
| 2026-05-07 01:51 | 37.84653 | -83.80186 | 39985 ft | 321 kts | 278° |
| 2026-05-07 01:51 | 37.85738 | -83.85652 | 39982 ft | 321 kts | 277° |
| 2026-05-07 01:52 | 37.86821 | -83.91123 | 39989 ft | 321 kts | 276° |
| 2026-05-07 01:52 | 37.87907 | -83.96633 | 39990 ft | 321 kts | 278° |
| 2026-05-07 01:53 | 37.88981 | -84.02084 | 39994 ft | 321 kts | 277° |
| 2026-05-07 01:53 | 37.90054 | -84.07546 | 39995 ft | 320 kts | 276° |
| 2026-05-07 01:54 | 37.91122 | -84.13001 | 39996 ft | 321 kts | 277° |
| 2026-05-07 01:54 | 37.92194 | -84.18490 | 39994 ft | 320 kts | 276° |
| 2026-05-07 01:55 | 37.93259 | -84.23962 | 39994 ft | 320 kts | 277° |
| 2026-05-07 01:55 | 37.94318 | -84.29411 | 39998 ft | 319 kts | 276° |
| 2026-05-07 01:56 | 37.95377 | -84.34876 | 40002 ft | 320 kts | 277° |
| 2026-05-07 01:56 | 37.96435 | -84.40356 | 40012 ft | 320 kts | 276° |
| 2026-05-07 01:57 | 37.97492 | -84.45834 | 40013 ft | 320 kts | 276° |
| 2026-05-07 01:57 | 37.98519 | -84.51137 | 39974 ft | 296 kts | 277° |
| 2026-05-07 01:57 | 37.98997 | -84.53604 | 39815 ft | 284 kts | 277° |
| 2026-05-07 01:58 | 37.99456 | -84.55983 | 39585 ft | 274 kts | 277° |
| 2026-05-07 01:58 | 37.99902 | -84.58305 | 39153 ft | 269 kts | 276° |
| 2026-05-07 01:58 | 38.00341 | -84.60612 | 38545 ft | 269 kts | 276° |
| 2026-05-07 01:58 | 38.00774 | -84.62887 | 37845 ft | 272 kts | 275° |
| 2026-05-07 01:59 | 38.01215 | -84.65227 | 37012 ft | 277 kts | 276° |
| 2026-05-07 01:59 | 38.01668 | -84.67619 | 36258 ft | 280 kts | 275° |
| 2026-05-07 01:59 | 38.02123 | -84.70021 | 35510 ft | 284 kts | 275° |
| 2026-05-07 01:59 | 38.02586 | -84.72475 | 34689 ft | 290 kts | 274° |
| 2026-05-07 02:00 | 38.03059 | -84.74990 | 33749 ft | 298 kts | 275° |
| 2026-05-07 02:00 | 38.03542 | -84.77550 | 33028 ft | 300 kts | 274° |
| 2026-05-07 02:00 | 38.04028 | -84.80111 | 32468 ft | 298 kts | 275° |
| 2026-05-07 02:00 | 38.04515 | -84.82667 | 31963 ft | 296 kts | 274° |
| 2026-05-07 02:01 | 38.04987 | -84.85149 | 31557 ft | 290 kts | 273° |
| 2026-05-07 02:01 | 38.05456 | -84.87633 | 31076 ft | 287 kts | 273° |
| 2026-05-07 02:01 | 38.05925 | -84.90112 | 30560 ft | 284 kts | 275° |
| 2026-05-07 02:01 | 38.06379 | -84.92519 | 30121 ft | 280 kts | 274° |
| 2026-05-07 02:02 | 38.06828 | -84.94891 | 30008 ft | 273 kts | 274° |
| 2026-05-07 02:02 | 38.07267 | -84.97240 | 30013 ft | 276 kts | 275° |
| 2026-05-07 02:02 | 38.07711 | -84.99624 | 30010 ft | 279 kts | 274° |
| 2026-05-07 02:02 | 38.08160 | -85.02035 | 30011 ft | 282 kts | 274° |
| 2026-05-07 02:03 | 38.08608 | -85.04433 | 30008 ft | 283 kts | 274° |
| 2026-05-07 02:03 | 38.09067 | -85.06897 | 30010 ft | 283 kts | 275° |
| 2026-05-07 02:03 | 38.09523 | -85.09335 | 30007 ft | 284 kts | 274° |
| 2026-05-07 02:03 | 38.10096 | -85.11747 | 30007 ft | 287 kts | 278° |
| 2026-05-07 02:04 | 38.10742 | -85.14197 | 30004 ft | 286 kts | 278° |
| 2026-05-07 02:04 | 38.11398 | -85.16591 | 29786 ft | 280 kts | 278° |
| 2026-05-07 02:04 | 38.12046 | -85.18887 | 29310 ft | 277 kts | 278° |
| 2026-05-07 02:04 | 38.12676 | -85.21186 | 28714 ft | 278 kts | 279° |
| 2026-05-07 02:05 | 38.13311 | -85.23506 | 28153 ft | 278 kts | 279° |
| 2026-05-07 02:05 | 38.13955 | -85.25835 | 27596 ft | 277 kts | 279° |
| 2026-05-07 02:05 | 38.14572 | -85.28114 | 27059 ft | 277 kts | 278° |
| 2026-05-07 02:05 | 38.15209 | -85.30424 | 26587 ft | 274 kts | 279° |
| 2026-05-07 02:06 | 38.15845 | -85.32700 | 26058 ft | 273 kts | 278° |
| 2026-05-07 02:06 | 38.16486 | -85.34946 | 25541 ft | 271 kts | 279° |
| 2026-05-07 02:06 | 38.17106 | -85.37189 | 25093 ft | 268 kts | 278° |
| 2026-05-07 02:06 | 38.17729 | -85.39426 | 24427 ft | 271 kts | 279° |
| 2026-05-07 02:07 | 38.18338 | -85.41689 | 24101 ft | 276 kts | 279° |
| 2026-05-07 02:07 | 38.19632 | -85.46662 | 24028 ft | 320 kts | 279° |
| 2026-05-07 02:07 | 38.20332 | -85.49474 | 24029 ft | 341 kts | 279° |
| 2026-05-07 02:08 | 38.21028 | -85.52427 | 24028 ft | 360 kts | 279° |
| 2026-05-07 02:08 | 38.21753 | -85.55554 | 24023 ft | 371 kts | 279° |
| 2026-05-07 02:08 | 38.22461 | -85.58695 | 24021 ft | 375 kts | 279° |
| 2026-05-07 02:08 | 38.23217 | -85.61877 | 24028 ft | 375 kts | 282° |
| 2026-05-07 02:09 | 38.24339 | -85.64928 | 24030 ft | 386 kts | 290° |
| 2026-05-07 02:09 | 38.25964 | -85.67724 | 24028 ft | 402 kts | 300° |
| 2026-05-07 02:09 | 38.28093 | -85.70126 | 24029 ft | 420 kts | 311° |
| 2026-05-07 02:09 | 38.30720 | -85.71974 | 24036 ft | 444 kts | 323° |
| 2026-05-07 02:10 | 38.33775 | -85.73022 | 24033 ft | 473 kts | 338° |
| 2026-05-07 02:10 | 38.37224 | -85.72932 | 24042 ft | 510 kts | 357° |
| 2026-05-07 02:10 | 38.40712 | -85.71690 | 24008 ft | 528 kts | 6° |
| 2026-05-07 02:10 | 38.44203 | -85.70242 | 24018 ft | 527 kts | 6° |
| 2026-05-07 02:11 | 38.47700 | -85.68801 | 24024 ft | 526 kts | 6° |
| 2026-05-07 02:11 | 38.51182 | -85.67369 | 24026 ft | 526 kts | 6° |
| 2026-05-07 02:11 | 38.54702 | -85.65956 | 24032 ft | 523 kts | 3° |
| 2026-05-07 02:11 | 38.58215 | -85.65202 | 24024 ft | 498 kts | 349° |
| 2026-05-07 02:12 | 38.61595 | -85.65376 | 24017 ft | 478 kts | 339° |
| 2026-05-07 02:12 | 38.64893 | -85.65861 | 24016 ft | 476 kts | 339° |
| 2026-05-07 02:12 | 38.68179 | -85.66343 | 24025 ft | 475 kts | 339° |
| 2026-05-07 02:12 | 38.71466 | -85.66825 | 24035 ft | 475 kts | 339° |
| 2026-05-07 02:13 | 38.74768 | -85.67311 | 23942 ft | 477 kts | 339° |
| 2026-05-07 02:13 | 38.78060 | -85.67793 | 23422 ft | 468 kts | 339° |
| 2026-05-07 02:13 | 38.81203 | -85.68229 | 22912 ft | 444 kts | 338° |
| 2026-05-07 02:13 | 38.84195 | -85.68649 | 22334 ft | 425 kts | 338° |
| 2026-05-07 02:14 | 38.87071 | -85.69059 | 21783 ft | 406 kts | 338° |
| 2026-05-07 02:14 | 38.89839 | -85.69456 | 21257 ft | 391 kts | 338° |
| 2026-05-07 02:14 | 38.92509 | -85.69849 | 20778 ft | 385 kts | 337° |
| 2026-05-07 02:14 | 38.95168 | -85.70252 | 20233 ft | 383 kts | 338° |
| 2026-05-07 02:15 | 38.97786 | -85.70641 | 19739 ft | 377 kts | 338° |
| 2026-05-07 02:15 | 39.00384 | -85.71030 | 19235 ft | 374 kts | 338° |
| 2026-05-07 02:15 | 39.02953 | -85.71439 | 18737 ft | 368 kts | 338° |
| 2026-05-07 02:15 | 39.05473 | -85.71883 | 18302 ft | 363 kts | 338° |
| 2026-05-07 02:16 | 39.07988 | -85.72327 | 17894 ft | 361 kts | 338° |
| 2026-05-07 02:16 | 39.10471 | -85.72768 | 17509 ft | 359 kts | 338° |
| 2026-05-07 02:16 | 39.12943 | -85.73205 | 17081 ft | 355 kts | 339° |
| 2026-05-07 02:16 | 39.15344 | -85.73740 | 16675 ft | 341 kts | 330° |
| 2026-05-07 02:17 | 39.17468 | -85.74854 | 16269 ft | 328 kts | 323° |
| 2026-05-07 02:17 | 39.19572 | -85.76073 | 15873 ft | 328 kts | 324° |
| 2026-05-07 02:17 | 39.21632 | -85.77258 | 15453 ft | 324 kts | 324° |
| 2026-05-07 02:17 | 39.23686 | -85.78440 | 15094 ft | 324 kts | 325° |
| 2026-05-07 02:18 | 39.25745 | -85.79626 | 14709 ft | 321 kts | 325° |
| 2026-05-07 02:18 | 39.27789 | -85.80803 | 14333 ft | 320 kts | 326° |
| 2026-05-07 02:18 | 39.29809 | -85.81967 | 13966 ft | 319 kts | 326° |
| 2026-05-07 02:18 | 39.31841 | -85.83139 | 13586 ft | 318 kts | 327° |
| 2026-05-07 02:19 | 39.33737 | -85.84506 | 13226 ft | 306 kts | 315° |
| 2026-05-07 02:19 | 39.35372 | -85.86204 | 12857 ft | 302 kts | 313° |
| 2026-05-07 02:19 | 39.36993 | -85.87962 | 12507 ft | 298 kts | 308° |
| 2026-05-07 02:19 | 39.38048 | -85.90132 | 12143 ft | 280 kts | 284° |
| 2026-05-07 02:20 | 39.38161 | -85.92591 | 11540 ft | 278 kts | 261° |
| 2026-05-07 02:20 | 39.37666 | -85.95010 | 10829 ft | 282 kts | 255° |
| 2026-05-07 02:20 | 39.37100 | -85.97440 | 10121 ft | 285 kts | 255° |
| 2026-05-07 02:20 | 39.36570 | -85.99886 | 9528 ft | 284 kts | 256° |
| 2026-05-07 02:21 | 39.35667 | -86.02141 | 8891 ft | 290 kts | 231° |
| 2026-05-07 02:21 | 39.33986 | -86.03610 | 8255 ft | 300 kts | 204° |
| 2026-05-07 02:21 | 39.31900 | -86.03911 | 7593 ft | 309 kts | 179° |
| 2026-05-07 02:21 | 39.29744 | -86.03552 | 6982 ft | 309 kts | 175° |
| 2026-05-07 02:22 | 39.27640 | -86.03184 | 6458 ft | 304 kts | 175° |
| 2026-05-07 02:22 | 39.25586 | -86.02836 | 6121 ft | 287 kts | 175° |
| 2026-05-07 02:22 | 39.23646 | -86.02512 | 6010 ft | 274 kts | 175° |
| 2026-05-07 02:22 | 39.21764 | -86.02201 | 5996 ft | 276 kts | 175° |
| 2026-05-07 02:23 | 39.19851 | -86.01882 | 5987 ft | 277 kts | 175° |
| 2026-05-07 02:23 | 39.17930 | -86.01553 | 5988 ft | 277 kts | 174° |
| 2026-05-07 02:23 | 39.16005 | -86.01229 | 5985 ft | 277 kts | 175° |
| 2026-05-07 02:23 | 39.14109 | -86.00811 | 5979 ft | 279 kts | 164° |
| 2026-05-07 02:24 | 39.12472 | -85.99492 | 5988 ft | 282 kts | 133° |
| 2026-05-07 02:24 | 39.11554 | -85.97285 | 5989 ft | 283 kts | 102° |
| 2026-05-07 02:24 | 39.11613 | -85.94795 | 5990 ft | 279 kts | 70° |
| 2026-05-07 02:24 | 39.12623 | -85.92715 | 5997 ft | 273 kts | 39° |
| 2026-05-07 02:25 | 39.14280 | -85.91625 | 5991 ft | 266 kts | 8° |
| 2026-05-07 02:25 | 39.16133 | -85.91544 | 5990 ft | 263 kts | 355° |
| 2026-05-07 02:25 | 39.17944 | -85.91643 | 5987 ft | 263 kts | 355° |
| 2026-05-07 02:25 | 39.19782 | -85.91747 | 5988 ft | 263 kts | 355° |
| 2026-05-07 02:26 | 39.21616 | -85.91852 | 5985 ft | 262 kts | 355° |
| 2026-05-07 02:26 | 39.23438 | -85.91955 | 5985 ft | 262 kts | 355° |
| 2026-05-07 02:26 | 39.25277 | -85.92062 | 5986 ft | 262 kts | 355° |
| 2026-05-07 02:26 | 39.27115 | -85.92173 | 5984 ft | 262 kts | 355° |
| 2026-05-07 02:27 | 39.28932 | -85.92283 | 5982 ft | 263 kts | 355° |
| 2026-05-07 02:27 | 39.30759 | -85.92396 | 5980 ft | 263 kts | 355° |
| 2026-05-07 02:27 | 39.32600 | -85.92496 | 5983 ft | 263 kts | 355° |
| 2026-05-07 02:27 | 39.34421 | -85.92603 | 5988 ft | 263 kts | 355° |
| 2026-05-07 02:28 | 39.36263 | -85.92713 | 5984 ft | 263 kts | 355° |
| 2026-05-07 02:28 | 39.38100 | -85.92814 | 5985 ft | 263 kts | 355° |
| 2026-05-07 02:28 | 39.39942 | -85.92912 | 5984 ft | 262 kts | 355° |
| 2026-05-07 02:28 | 39.41767 | -85.93019 | 5991 ft | 263 kts | 355° |
| 2026-05-07 02:29 | 39.43588 | -85.93128 | 5991 ft | 263 kts | 355° |
| 2026-05-07 02:29 | 39.45415 | -85.93230 | 5976 ft | 261 kts | 355° |
| 2026-05-07 02:29 | 39.47247 | -85.93339 | 5997 ft | 263 kts | 355° |
| 2026-05-07 02:29 | 39.49068 | -85.93445 | 5989 ft | 262 kts | 355° |
| 2026-05-07 02:30 | 39.50922 | -85.93548 | 5991 ft | 263 kts | 355° |
| 2026-05-07 02:30 | 39.52758 | -85.93649 | 5990 ft | 263 kts | 355° |
| 2026-05-07 02:30 | 39.54574 | -85.93758 | 5990 ft | 264 kts | 355° |
| 2026-05-07 02:30 | 39.56419 | -85.93869 | 5989 ft | 263 kts | 354° |
| 2026-05-07 02:31 | 39.58242 | -85.93972 | 5990 ft | 264 kts | 355° |
| 2026-05-07 02:31 | 39.60095 | -85.94074 | 5989 ft | 264 kts | 355° |
| 2026-05-07 02:31 | 39.61941 | -85.94178 | 5986 ft | 263 kts | 355° |
| 2026-05-07 02:31 | 39.63759 | -85.94282 | 5988 ft | 263 kts | 354° |
| 2026-05-07 02:32 | 39.65620 | -85.94389 | 5989 ft | 263 kts | 355° |
| 2026-05-07 02:32 | 39.67446 | -85.94503 | 5986 ft | 263 kts | 352° |
| 2026-05-07 02:32 | 39.69201 | -85.95127 | 5983 ft | 259 kts | 336° |
| 2026-05-07 02:32 | 39.70862 | -85.96020 | 5982 ft | 259 kts | 335° |
| 2026-05-07 02:33 | 39.72513 | -85.96930 | 5982 ft | 259 kts | 334° |
| 2026-05-07 02:33 | 39.74172 | -85.97846 | 5982 ft | 259 kts | 335° |
| 2026-05-07 02:33 | 39.75794 | -85.98741 | 5795 ft | 249 kts | 335° |
| 2026-05-07 02:33 | 39.77389 | -85.99618 | 5310 ft | 250 kts | 335° |
| 2026-05-07 02:34 | 39.78989 | -86.00519 | 4818 ft | 251 kts | 335° |
| 2026-05-07 02:34 | 39.80588 | -86.01423 | 4407 ft | 247 kts | 335° |
| 2026-05-07 02:34 | 39.82160 | -86.02316 | 4059 ft | 241 kts | 335° |
| 2026-05-07 02:34 | 39.83646 | -86.03160 | 3981 ft | 225 kts | 335° |
| 2026-05-07 02:35 | 39.85038 | -86.03970 | 3990 ft | 212 kts | 330° |
| 2026-05-07 02:35 | 39.86049 | -86.05288 | 3931 ft | 208 kts | 296° |
| 2026-05-07 02:35 | 39.86218 | -86.07146 | 3615 ft | 213 kts | 262° |
| 2026-05-07 02:35 | 39.85792 | -86.09009 | 3231 ft | 217 kts | 256° |
| 2026-05-07 02:36 | 39.85135 | -86.10783 | 2993 ft | 217 kts | 239° |
| 2026-05-07 02:36 | 39.84131 | -86.12282 | 2989 ft | 222 kts | 232° |
| 2026-05-07 02:36 | 39.83041 | -86.13757 | 2978 ft | 225 kts | 231° |
| 2026-05-07 02:36 | 39.81939 | -86.15198 | 2981 ft | 226 kts | 231° |
| 2026-05-07 02:37 | 39.80851 | -86.16596 | 2992 ft | 209 kts | 230° |
| 2026-05-07 02:37 | 39.79866 | -86.17850 | 2956 ft | 193 kts | 231° |
| 2026-05-07 02:37 | 39.78922 | -86.19067 | 2707 ft | 189 kts | 231° |
| 2026-05-07 02:37 | 39.77993 | -86.20260 | 2437 ft | 185 kts | 230° |
| 2026-05-07 02:38 | 39.77103 | -86.21398 | 2232 ft | 171 kts | 230° |
| 2026-05-07 02:38 | 39.76305 | -86.22402 | 2045 ft | 151 kts | 230° |
| 2026-05-07 02:38 | 39.75582 | -86.23327 | 1817 ft | 140 kts | 231° |
| 2026-05-07 02:38 | 39.74907 | -86.24191 | 1637 ft | 130 kts | 231° |
| 2026-05-07 02:39 | 39.74269 | -86.25012 | 1452 ft | 127 kts | 231° |
| 2026-05-07 02:39 | 39.73648 | -86.25814 | 1288 ft | 125 kts | 230° |
| 2026-05-07 02:39 | 39.73027 | -86.26612 | 1128 ft | 125 kts | 229° |
| 2026-05-07 02:39 | 39.72406 | -86.27403 | 959 ft | 124 kts | 227° |
| 2026-05-07 02:40 | 39.71793 | -86.28188 | 790 ft | 120 kts | 226° |
| 2026-05-07 02:40 | 39.71330 | -86.28780 | 789 ft | 61 kts | 221° |
| 2026-05-07 02:40 | 39.71169 | -86.28958 | 792 ft | 9 kts | 131° |
| 2026-05-07 02:40 | 39.71131 | -86.28906 | 792 ft | 4 kts | 134° |
| 2026-05-07 02:41 | 39.71113 | -86.28881 | 792 ft | 0 kts | 134° |
| 2026-05-07 02:41 | 39.71110 | -86.28870 | 792 ft | 3 kts | 83° |
| 2026-05-07 02:41 | 39.71140 | -86.28819 | 792 ft | 9 kts | 40° |
| 2026-05-07 02:41 | 39.71206 | -86.28738 | 791 ft | 17 kts | 46° |
| 2026-05-07 02:42 | 39.71305 | -86.28611 | 789 ft | 21 kts | 45° |
| 2026-05-07 02:42 | 39.71404 | -86.28485 | 789 ft | 16 kts | 44° |
| 2026-05-07 02:42 | 39.71490 | -86.28376 | 789 ft | 18 kts | 45° |
| 2026-05-07 02:42 | 39.71574 | -86.28260 | 787 ft | 16 kts | 52° |
| 2026-05-07 02:43 | 39.71621 | -86.28139 | 788 ft | 14 kts | 65° |
| 2026-05-07 02:43 | 39.71690 | -86.28018 | 786 ft | 19 kts | 43° |
| 2026-05-07 02:43 | 39.71791 | -86.27891 | 787 ft | 20 kts | 45° |
| 2026-05-07 02:43 | 39.71899 | -86.27753 | 787 ft | 23 kts | 43° |
| 2026-05-07 02:44 | 39.72025 | -86.27598 | 786 ft | 26 kts | 44° |
| 2026-05-07 02:44 | 39.72145 | -86.27441 | 788 ft | 24 kts | 45° |
| 2026-05-07 02:44 | 39.72279 | -86.27279 | 788 ft | 27 kts | 43° |
| 2026-05-07 02:44 | 39.72368 | -86.27190 | 786 ft | 10 kts | 330° |
| 2026-05-07 02:45 | 39.72442 | -86.27219 | 787 ft | 11 kts | 360° |
| 2026-05-07 02:45 | 39.72489 | -86.27207 | 786 ft | 0 kts | 37° |